createdAt,value
2022-08-21T00:01:51.556Z,9.90
2022-08-21T00:04:22.264Z,16.10
2022-08-21T00:06:50.762Z,8.20
2022-08-21T00:09:18.421Z,9.23
2022-08-21T00:11:45.797Z,6.10
2022-08-21T00:14:14.072Z,10.63
2022-08-21T00:16:42.018Z,11.83
2022-08-21T00:19:09.399Z,11.90
2022-08-21T00:21:37.223Z,6.90
2022-08-21T00:24:04.544Z,7.73
2022-08-21T00:26:31.534Z,17.77
2022-08-21T00:28:59.021Z,11.90
2022-08-21T00:31:26.413Z,16.73
2022-08-21T00:33:54.367Z,15.30
2022-08-21T00:36:27.826Z,10.53
2022-08-21T00:38:54.767Z,16.63
2022-08-21T00:41:38.259Z,14.80
2022-08-21T00:44:13.927Z,9.20
2022-08-21T00:46:41.607Z,8.27
2022-08-21T00:49:09.262Z,10.20
2022-08-21T00:51:48.012Z,7.93
2022-08-21T00:54:18.498Z,14.97
2022-08-21T00:56:49.086Z,7.93
2022-08-21T00:59:18.828Z,12.50
2022-08-21T01:01:46.056Z,17.53
2022-08-21T01:04:13.698Z,13.27
2022-08-21T01:06:40.767Z,12.43
2022-08-21T01:09:07.752Z,13.43
2022-08-21T01:11:35.352Z,13.67
2022-08-21T01:14:02.979Z,13.13
2022-08-21T01:16:30.232Z,11.83
2022-08-21T01:18:59.138Z,13.57
2022-08-21T01:21:28.695Z,19.57
2022-08-21T01:23:57.823Z,14.00
2022-08-21T01:26:31.207Z,14.03
2022-08-21T01:29:49.265Z,11.33
2022-08-21T01:32:19.139Z,17.30
2022-08-21T01:34:48.213Z,21.30
2022-08-21T01:37:16.177Z,13.93
2022-08-21T01:39:45.905Z,14.90
2022-08-21T01:42:13.988Z,15.50
2022-08-21T01:44:41.564Z,16.70
2022-08-21T01:47:11.559Z,16.73
2022-08-21T01:49:39.704Z,20.63
2022-08-21T01:52:09.521Z,12.40
2022-08-21T01:54:37.690Z,12.33
2022-08-21T01:57:06.014Z,13.47
2022-08-21T01:59:33.634Z,13.00
2022-08-21T02:02:00.554Z,10.17
2022-08-21T02:04:27.813Z,12.67
2022-08-21T02:06:54.665Z,17.00
2022-08-21T02:09:22.705Z,20.00
2022-08-21T02:11:52.267Z,12.23
2022-08-21T02:14:27.149Z,13.03
2022-08-21T02:17:05.392Z,11.50
2022-08-21T02:19:40.241Z,17.60
2022-08-21T02:22:11.928Z,27.90
2022-08-21T02:24:53.754Z,17.27
2022-08-21T02:27:26.068Z,15.37
2022-08-21T02:29:56.281Z,13.10
2022-08-21T02:32:23.167Z,12.47
2022-08-21T02:34:50.848Z,15.27
2022-08-21T02:37:17.822Z,14.27
2022-08-21T02:39:44.782Z,9.53
2022-08-21T02:42:11.669Z,16.50
2022-08-21T02:44:38.567Z,16.27
2022-08-21T02:47:05.836Z,21.17
2022-08-21T02:49:32.786Z,16.70
2022-08-21T02:52:00.186Z,13.37
2022-08-21T02:54:27.086Z,15.87
2022-08-21T02:56:54.019Z,14.37
2022-08-21T02:59:20.937Z,14.80
2022-08-21T03:01:47.987Z,21.23
2022-08-21T03:04:14.984Z,19.90
2022-08-21T03:06:41.894Z,11.70
2022-08-21T03:09:08.788Z,18.20
2022-08-21T03:11:37.917Z,11.90
2022-08-21T03:14:07.270Z,14.30
2022-08-21T03:16:35.286Z,13.60
2022-08-21T03:19:03.244Z,13.43
2022-08-21T03:21:30.283Z,13.00
2022-08-21T03:23:57.195Z,18.20
2022-08-21T03:26:25.292Z,17.13
2022-08-21T03:28:52.436Z,14.90
2022-08-21T03:31:19.418Z,14.83
2022-08-21T03:33:46.411Z,15.97
2022-08-21T03:36:13.467Z,25.00
2022-08-21T03:38:41.015Z,17.97
2022-08-21T03:41:08.787Z,20.83
2022-08-21T03:43:36.587Z,17.83
2022-08-21T03:46:04.791Z,23.17
2022-08-21T03:48:32.454Z,20.20
2022-08-21T03:50:59.565Z,18.63
2022-08-21T03:53:26.811Z,17.33
2022-08-21T03:55:54.340Z,16.70
2022-08-21T03:58:24.389Z,21.97
2022-08-21T04:00:53.460Z,16.87
2022-08-21T04:03:20.909Z,20.90
2022-08-21T04:05:47.925Z,26.70
2022-08-21T04:08:18.310Z,19.07
2022-08-21T04:10:47.378Z,19.87
2022-08-21T04:13:15.815Z,32.07
2022-08-21T04:15:42.980Z,18.10
2022-08-21T04:18:11.572Z,19.57
2022-08-21T04:20:39.229Z,24.30
2022-08-21T04:23:06.118Z,19.80
2022-08-21T04:25:34.148Z,19.27
2022-08-21T04:28:04.765Z,20.27
2022-08-21T04:30:32.224Z,25.47
2022-08-21T04:32:59.831Z,18.87
2022-08-21T04:35:28.850Z,15.43
2022-08-21T04:37:56.232Z,36.83
2022-08-21T04:40:25.748Z,20.40
2022-08-21T04:43:00.241Z,19.07
2022-08-21T04:45:36.147Z,24.17
2022-08-21T04:48:09.588Z,28.07
2022-08-21T04:51:19.463Z,23.50
2022-08-21T04:53:55.009Z,31.50
2022-08-21T04:56:29.576Z,21.43
2022-08-21T04:58:59.388Z,25.60
2022-08-21T05:01:30.159Z,27.53
2022-08-21T05:04:00.534Z,25.83
2022-08-21T05:06:31.585Z,22.87
2022-08-21T05:09:01.964Z,21.50
2022-08-21T05:11:31.438Z,17.70
2022-08-21T05:13:58.757Z,21.17
2022-08-21T05:16:36.821Z,23.20
2022-08-21T05:19:08.350Z,16.83
2022-08-21T05:21:36.633Z,18.57
2022-08-21T05:24:03.949Z,23.53
2022-08-21T05:26:31.338Z,15.90
2022-08-21T05:28:58.218Z,13.47
2022-08-21T05:31:25.580Z,16.53
2022-08-21T05:33:52.490Z,11.57
2022-08-21T05:36:20.188Z,16.53
2022-08-21T05:38:47.692Z,11.10
2022-08-21T05:41:14.581Z,23.23
2022-08-21T05:43:41.482Z,12.97
2022-08-21T05:46:09.458Z,10.00
2022-08-21T05:48:37.257Z,15.13
2022-08-21T05:51:09.563Z,8.70
2022-08-21T05:53:38.032Z,11.20
2022-08-21T05:56:06.160Z,15.23
2022-08-21T05:58:34.619Z,13.60
2022-08-21T06:01:03.468Z,9.07
2022-08-21T06:03:32.949Z,20.13
2022-08-21T06:05:59.938Z,10.47
2022-08-21T06:08:27.944Z,9.00
2022-08-21T06:10:56.802Z,15.30
2022-08-21T06:13:24.739Z,9.03
2022-08-21T06:16:01.615Z,10.60
2022-08-21T06:18:28.581Z,9.93
2022-08-21T06:20:55.483Z,6.63
2022-08-21T06:23:33.363Z,7.13
2022-08-21T06:26:01.708Z,10.57
2022-08-21T06:28:28.807Z,7.40
2022-08-21T06:30:55.931Z,7.00
2022-08-21T06:33:22.972Z,9.27
2022-08-21T06:35:49.886Z,13.43
2022-08-21T06:38:16.865Z,10.60
2022-08-21T06:40:47.190Z,8.53
2022-08-21T06:43:17.131Z,7.40
2022-08-21T06:45:44.790Z,7.03
2022-08-21T06:48:15.624Z,9.80
2022-08-21T06:50:45.466Z,5.80
2022-08-21T06:53:13.973Z,10.03
2022-08-21T06:55:43.050Z,5.10
2022-08-21T06:58:11.124Z,5.50
2022-08-21T07:00:41.916Z,7.50
2022-08-21T07:03:17.195Z,6.93
2022-08-21T07:05:44.097Z,5.67
2022-08-21T07:08:11.009Z,6.27
2022-08-21T07:10:37.932Z,3.53
2022-08-21T07:13:04.960Z,6.67
2022-08-21T07:15:33.643Z,11.53
2022-08-21T07:18:01.029Z,5.63
2022-08-21T07:20:29.204Z,4.30
2022-08-21T07:22:58.586Z,7.40
2022-08-21T07:25:25.591Z,7.77
2022-08-21T07:27:52.645Z,7.10
2022-08-21T07:30:19.902Z,4.80
2022-08-21T07:32:46.896Z,5.40
2022-08-21T07:35:14.025Z,7.37
2022-08-21T07:37:40.882Z,8.20
2022-08-21T07:40:08.968Z,4.87
2022-08-21T07:42:42.234Z,3.80
2022-08-21T07:45:10.409Z,3.92
2022-08-21T07:47:42.433Z,8.98
2022-08-21T07:50:12.468Z,10.47
2022-08-21T07:52:40.522Z,5.10
2022-08-21T07:55:09.902Z,4.63
2022-08-21T07:57:36.913Z,4.68
2022-08-21T08:00:09.912Z,4.15
2022-08-21T08:02:36.942Z,5.47
2022-08-21T08:05:12.125Z,4.97
2022-08-21T08:07:39.690Z,5.78
2022-08-21T08:10:08.545Z,7.35
2022-08-21T08:12:39.987Z,6.70
2022-08-21T08:15:09.486Z,5.18
2022-08-21T08:17:37.138Z,6.35
2022-08-21T08:20:04.773Z,4.28
2022-08-21T08:22:31.788Z,19.92
2022-08-21T08:24:58.933Z,6.32
2022-08-21T08:27:25.997Z,6.50
2022-08-21T08:29:52.981Z,9.07
2022-08-21T08:32:21.051Z,4.97
2022-08-21T08:34:49.769Z,5.40
2022-08-21T08:37:17.400Z,4.22
2022-08-21T08:39:44.981Z,5.47
2022-08-21T08:42:34.262Z,4.78
2022-08-21T08:45:14.202Z,11.68
2022-08-21T08:47:45.623Z,5.07
2022-08-21T08:50:19.347Z,5.22
2022-08-21T08:52:55.222Z,6.25
2022-08-21T08:55:33.229Z,5.30
2022-08-21T08:58:00.537Z,12.63
2022-08-21T09:00:27.574Z,10.40
2022-08-21T09:02:59.634Z,7.90
2022-08-21T09:05:28.744Z,8.48
2022-08-21T09:07:55.592Z,5.47
2022-08-21T09:10:47.831Z,6.90
2022-08-21T09:13:28.823Z,7.75
2022-08-21T09:16:27.056Z,6.35
2022-08-21T09:19:27.318Z,5.15
2022-08-21T09:22:15.239Z,5.65
2022-08-21T09:25:15.450Z,5.10
2022-08-21T09:27:42.880Z,4.80
2022-08-21T09:30:12.406Z,4.40
2022-08-21T09:32:40.339Z,3.95
2022-08-21T09:35:12.626Z,4.07
2022-08-21T09:38:25.278Z,5.00
2022-08-21T09:41:04.635Z,3.23
2022-08-21T09:43:32.393Z,8.30
2022-08-21T09:46:13.152Z,4.75
2022-08-21T09:49:06.957Z,4.28
2022-08-21T09:51:53.100Z,5.38
2022-08-21T09:54:27.411Z,10.70
2022-08-21T09:57:24.906Z,4.03
2022-08-21T09:59:52.141Z,6.65
2022-08-21T10:02:47.980Z,4.90
2022-08-21T10:05:21.198Z,2.78
2022-08-21T10:07:49.340Z,2.95
2022-08-21T10:10:25.616Z,4.60
2022-08-21T10:13:18.186Z,4.88
2022-08-21T10:16:17.301Z,2.90
2022-08-21T10:19:27.128Z,3.92
2022-08-21T10:22:02.185Z,7.32
2022-08-21T10:24:57.143Z,3.85
2022-08-21T10:27:50.862Z,2.85
2022-08-21T10:30:52.325Z,4.35
2022-08-21T10:33:44.098Z,6.15
2022-08-21T10:36:27.654Z,6.80
2022-08-21T10:39:23.691Z,7.80
2022-08-21T10:42:19.035Z,5.73
2022-08-21T10:45:30.503Z,3.83
2022-08-21T10:48:05.060Z,1.77
2022-08-21T10:50:55.448Z,6.07
2022-08-21T10:53:42.908Z,5.20
2022-08-21T10:56:28.016Z,2.75
2022-08-21T10:59:25.376Z,3.22
2022-08-21T11:02:12.567Z,5.60
2022-08-21T11:05:12.106Z,6.57
2022-08-21T11:08:05.038Z,4.70
2022-08-21T11:10:57.851Z,1.73
2022-08-21T11:13:48.198Z,5.18
2022-08-21T11:16:47.799Z,7.75
2022-08-21T11:19:29.023Z,1.10
2022-08-21T11:22:14.559Z,4.60
2022-08-21T11:25:09.932Z,3.22
2022-08-21T11:27:56.268Z,1.65
2022-08-21T11:30:29.580Z,1.15
2022-08-21T11:33:11.209Z,1.67
2022-08-21T11:35:52.731Z,4.80
2022-08-21T11:38:41.422Z,2.13
2022-08-21T11:41:33.705Z,1.75
2022-08-21T11:44:39.439Z,2.60
2022-08-21T11:47:52.061Z,4.80
2022-08-21T11:50:35.716Z,3.90
2022-08-21T11:53:15.751Z,2.10
2022-08-21T11:55:59.305Z,8.02
2022-08-21T11:58:50.150Z,2.55
2022-08-21T12:01:25.321Z,2.95
2022-08-21T12:04:10.745Z,1.33
2022-08-21T12:06:41.404Z,3.25
2022-08-21T12:09:30.898Z,1.40
2022-08-21T12:12:35.192Z,2.60
2022-08-21T12:15:21.169Z,1.70
2022-08-21T12:18:22.084Z,2.17
2022-08-21T12:21:21.240Z,2.67
2022-08-21T12:24:04.150Z,2.05
2022-08-21T12:26:49.771Z,1.83
2022-08-21T12:29:32.711Z,1.05
2022-08-21T12:32:20.157Z,0.98
2022-08-21T12:34:56.266Z,2.67
2022-08-21T12:37:31.058Z,1.40
2022-08-21T12:40:01.839Z,1.85
2022-08-21T12:42:56.598Z,1.30
2022-08-21T12:45:42.745Z,1.13
2022-08-21T12:48:34.126Z,1.10
2022-08-21T12:51:32.293Z,1.42
2022-08-21T12:54:00.796Z,2.03
2022-08-21T12:56:33.632Z,0.80
2022-08-21T12:59:11.984Z,0.90
2022-08-21T13:01:52.656Z,1.42
2022-08-21T13:04:37.388Z,2.45
2022-08-21T13:07:08.536Z,1.17
2022-08-21T13:09:35.524Z,1.15
2022-08-21T13:12:02.621Z,2.75
2022-08-21T13:14:38.413Z,4.63
2022-08-21T13:17:14.083Z,1.02
2022-08-21T13:19:59.479Z,2.22
2022-08-21T13:22:33.287Z,1.10
2022-08-21T13:25:05.896Z,2.03
2022-08-21T13:27:35.457Z,1.25
2022-08-21T13:30:15.586Z,4.75
2022-08-21T13:32:47.177Z,4.32
2022-08-21T13:35:22.034Z,2.67
2022-08-21T13:37:52.816Z,1.35
2022-08-21T13:41:02.975Z,1.30
2022-08-21T13:43:34.028Z,3.72
2022-08-21T13:46:02.237Z,1.92
2022-08-21T13:48:34.065Z,3.20
2022-08-21T13:51:01.944Z,2.28
2022-08-21T13:53:32.806Z,1.30
2022-08-21T13:56:01.491Z,1.17
2022-08-21T13:58:29.774Z,0.82
2022-08-21T14:00:58.997Z,1.33
2022-08-21T14:03:39.285Z,0.90
2022-08-21T14:06:22.217Z,1.00
2022-08-21T14:08:56.300Z,1.42
2022-08-21T14:11:24.235Z,8.32
2022-08-21T14:13:59.139Z,3.38
2022-08-21T14:16:29.970Z,7.45
2022-08-21T14:19:25.270Z,4.07
2022-08-21T14:21:52.461Z,2.97
2022-08-21T14:24:30.773Z,1.30
2022-08-21T14:27:08.539Z,1.80
2022-08-21T14:29:42.103Z,1.80
2022-08-21T14:32:21.624Z,1.20
2022-08-21T14:34:51.917Z,2.97
2022-08-21T14:37:19.328Z,5.70
2022-08-21T14:39:46.679Z,2.10
2022-08-21T14:42:14.077Z,1.83
2022-08-21T14:44:41.008Z,1.50
2022-08-21T14:47:09.485Z,2.27
2022-08-21T14:49:36.518Z,1.67
2022-08-21T14:52:03.825Z,6.77
2022-08-21T14:54:32.672Z,2.20
2022-08-21T14:57:06.217Z,2.53
2022-08-21T14:59:34.275Z,2.37
2022-08-21T15:02:01.952Z,1.00
2022-08-21T15:04:29.152Z,2.17
2022-08-21T15:06:56.375Z,2.13
2022-08-21T15:09:23.492Z,3.20
2022-08-21T15:11:50.806Z,1.67
2022-08-21T15:14:24.808Z,2.33
2022-08-21T15:16:52.776Z,9.73
2022-08-21T15:19:19.848Z,2.30
2022-08-21T15:21:46.878Z,4.23
2022-08-21T15:24:13.843Z,2.40
2022-08-21T15:26:40.787Z,2.70
2022-08-21T15:29:08.980Z,1.70
2022-08-21T15:31:37.427Z,1.70
2022-08-21T15:34:04.867Z,6.60
2022-08-21T15:36:31.796Z,1.30
2022-08-21T15:38:58.843Z,4.33
2022-08-21T15:41:25.846Z,3.87
2022-08-21T15:43:54.274Z,2.17
2022-08-21T15:46:22.326Z,2.03
2022-08-21T15:48:49.569Z,1.83
2022-08-21T15:51:17.847Z,5.10
2022-08-21T15:53:45.698Z,3.63
2022-08-21T15:56:37.937Z,3.00
2022-08-21T15:59:17.972Z,1.77
2022-08-21T16:01:46.149Z,2.60
2022-08-21T16:04:26.928Z,1.70
2022-08-21T16:06:59.857Z,3.47
2022-08-21T16:09:30.881Z,3.43
2022-08-21T16:11:59.223Z,3.13
2022-08-21T16:14:26.496Z,1.40
2022-08-21T16:16:54.468Z,2.90
2022-08-21T16:19:21.958Z,1.43
2022-08-21T16:21:48.981Z,2.33
2022-08-21T16:24:15.864Z,1.40
2022-08-21T16:26:43.270Z,6.60
2022-08-21T16:29:11.050Z,3.10
2022-08-21T16:31:38.149Z,2.13
2022-08-21T16:34:05.158Z,2.07
2022-08-21T16:36:32.222Z,3.57
2022-08-21T16:39:00.916Z,1.83
2022-08-21T16:41:34.566Z,4.73
2022-08-21T16:44:02.695Z,3.20
2022-08-21T16:46:36.742Z,1.53
2022-08-21T16:49:04.607Z,3.20
2022-08-21T16:51:31.735Z,1.20
2022-08-21T16:53:59.655Z,4.83
2022-08-21T16:56:27.166Z,2.40
2022-08-21T16:58:55.871Z,2.00
2022-08-21T17:01:26.616Z,1.50
2022-08-21T17:03:54.078Z,4.70
2022-08-21T17:06:23.654Z,1.90
2022-08-21T17:08:56.615Z,1.20
2022-08-21T17:11:37.879Z,2.50
2022-08-21T17:14:19.645Z,2.90
2022-08-21T17:16:49.751Z,3.83
2022-08-21T17:19:17.631Z,5.33
2022-08-21T17:21:44.738Z,1.40
2022-08-21T17:24:15.564Z,3.20
2022-08-21T17:26:44.043Z,2.37
2022-08-21T17:29:14.643Z,1.70
2022-08-21T17:31:43.854Z,1.47
2022-08-21T17:34:11.636Z,4.70
2022-08-21T17:36:38.809Z,3.10
2022-08-21T17:39:06.010Z,2.23
2022-08-21T17:41:33.837Z,5.27
2022-08-21T17:44:07.192Z,3.97
2022-08-21T17:46:34.407Z,3.23
2022-08-21T17:49:01.708Z,1.50
2022-08-21T17:51:28.804Z,5.63
2022-08-21T17:53:55.908Z,4.27
2022-08-21T17:56:24.774Z,2.97
2022-08-21T17:58:52.168Z,2.60
2022-08-21T18:01:20.404Z,3.80
2022-08-21T18:03:47.831Z,1.57
2022-08-21T18:06:17.910Z,5.17
2022-08-21T18:08:46.103Z,3.53
2022-08-21T18:11:23.043Z,3.33
2022-08-21T18:13:51.795Z,7.23
2022-08-21T18:16:19.603Z,1.17
2022-08-21T18:18:51.955Z,4.60
2022-08-21T18:21:19.242Z,1.50
2022-08-21T18:23:46.596Z,4.67
2022-08-21T18:26:16.211Z,1.77
2022-08-21T18:28:44.370Z,1.50
2022-08-21T18:31:12.413Z,1.80
2022-08-21T18:33:41.404Z,1.20
2022-08-21T18:36:24.530Z,5.47
2022-08-21T18:38:52.879Z,1.33
2022-08-21T18:41:19.799Z,5.70
2022-08-21T18:43:46.860Z,1.50
2022-08-21T18:46:15.787Z,3.33
2022-08-21T18:48:43.939Z,2.30
2022-08-21T18:51:12.353Z,3.23
2022-08-21T18:53:39.619Z,2.60
2022-08-21T18:56:15.595Z,3.10
2022-08-21T18:58:44.394Z,7.53
2022-08-21T19:01:11.871Z,4.83
2022-08-21T19:03:38.862Z,2.93
2022-08-21T19:06:06.288Z,4.43
2022-08-21T19:08:36.845Z,2.73
2022-08-21T19:11:06.619Z,2.40
2022-08-21T19:13:34.501Z,4.23
2022-08-21T19:16:05.280Z,9.20
2022-08-21T19:18:35.506Z,2.40
2022-08-21T19:21:03.355Z,4.93
2022-08-21T19:23:31.167Z,2.20
2022-08-21T19:26:04.151Z,2.00
2022-08-21T19:28:37.278Z,4.23
2022-08-21T19:31:23.642Z,2.03
2022-08-21T19:33:58.978Z,4.20
2022-08-21T19:36:29.285Z,2.10
2022-08-21T19:38:56.537Z,5.13
2022-08-21T19:41:26.470Z,3.00
2022-08-21T19:43:57.318Z,1.93
2022-08-21T19:46:28.086Z,3.90
2022-08-21T19:48:56.478Z,3.53
2022-08-21T19:51:25.109Z,5.83
2022-08-21T19:53:57.294Z,2.93
2022-08-21T19:56:27.879Z,2.90
2022-08-21T19:58:56.769Z,4.10
2022-08-21T20:01:26.326Z,4.80
2022-08-21T20:03:54.803Z,5.17
2022-08-21T20:06:25.708Z,3.30
2022-08-21T20:08:54.979Z,4.53
2022-08-21T20:11:36.049Z,4.57
2022-08-21T20:14:04.172Z,4.13
2022-08-21T20:16:31.416Z,3.30
2022-08-21T20:18:59.294Z,2.43
2022-08-21T20:21:26.537Z,2.03
2022-08-21T20:23:53.433Z,2.43
2022-08-21T20:26:21.155Z,2.43
2022-08-21T20:28:50.504Z,2.87
2022-08-21T20:31:19.594Z,3.63
2022-08-21T20:33:49.544Z,3.67
2022-08-21T20:36:17.274Z,4.67
2022-08-21T20:38:44.803Z,4.20
2022-08-21T20:41:21.048Z,3.47
2022-08-21T20:43:58.571Z,3.57
2022-08-21T20:46:28.300Z,4.23
2022-08-21T20:48:55.617Z,2.50
2022-08-21T20:51:34.559Z,3.20
2022-08-21T20:54:27.514Z,6.67
2022-08-21T20:57:30.712Z,10.67
2022-08-21T20:59:59.803Z,3.50
2022-08-21T21:03:15.979Z,5.70
2022-08-21T21:05:55.024Z,4.90
2022-08-21T21:08:46.665Z,5.80
2022-08-21T21:11:50.150Z,4.77
2022-08-21T21:14:27.025Z,2.83
2022-08-21T21:16:58.916Z,8.50
2022-08-21T21:19:46.516Z,5.20
2022-08-21T21:22:38.426Z,5.20
2022-08-21T21:25:22.497Z,4.40
2022-08-21T21:27:57.747Z,6.20
2022-08-21T21:30:41.345Z,5.07
2022-08-21T21:33:16.453Z,4.80
2022-08-21T21:35:59.100Z,7.33
2022-08-21T21:38:35.426Z,10.67
2022-08-21T21:41:30.210Z,3.27
2022-08-21T21:47:47.433Z,9.43
2022-08-21T21:50:42.618Z,3.67
2022-08-21T21:53:30.084Z,7.00
2022-08-21T21:56:40.820Z,8.90
2022-08-21T21:59:54.214Z,4.50
2022-08-21T22:02:23.645Z,3.73
2022-08-21T22:05:07.107Z,5.77
2022-08-21T22:07:59.836Z,3.77
2022-08-21T22:10:43.147Z,2.90
2022-08-21T22:13:26.675Z,8.40
2022-08-21T22:15:55.234Z,3.67
2022-08-21T22:18:26.756Z,4.43
2022-08-21T22:21:35.127Z,6.50
2022-08-21T22:24:27.541Z,7.50
2022-08-21T22:27:19.139Z,6.47
2022-08-21T22:29:59.200Z,3.07
2022-08-21T22:32:50.242Z,3.57
2022-08-21T22:35:26.619Z,4.00
2022-08-21T22:37:58.521Z,9.17
2022-08-21T22:40:32.207Z,7.40
2022-08-21T22:43:14.766Z,7.20
2022-08-21T22:46:05.873Z,6.60
2022-08-21T22:48:37.273Z,6.50
2022-08-21T22:51:30.076Z,9.97
2022-08-21T22:54:00.217Z,3.97
2022-08-21T22:56:45.296Z,5.87
2022-08-21T22:59:41.740Z,10.07
2022-08-21T23:02:30.140Z,4.53
2022-08-21T23:04:59.916Z,6.47
2022-08-21T23:07:42.869Z,11.00
2022-08-21T23:10:32.659Z,8.53
2022-08-21T23:13:13.182Z,6.03
2022-08-21T23:16:25.071Z,6.10
2022-08-21T23:19:38.141Z,10.13
2022-08-21T23:22:31.991Z,6.77
2022-08-21T23:25:41.931Z,9.77
2022-08-21T23:28:48.442Z,9.63
2022-08-21T23:31:54.790Z,11.30
2022-08-21T23:34:52.556Z,13.13
2022-08-21T23:38:02.529Z,9.00
2022-08-21T23:43:59.693Z,6.70
2022-08-21T23:47:16.302Z,7.33
2022-08-21T23:50:05.667Z,11.63
2022-08-21T23:52:53.469Z,9.60
2022-08-21T23:55:43.721Z,14.73
2022-08-21T23:58:50.776Z,7.10
